createdAt,value
2023-01-20T00:00:58.827Z,94718
2023-01-20T00:02:07.518Z,94724
2023-01-20T00:03:17.214Z,94726
2023-01-20T00:04:25.927Z,94731
2023-01-20T00:05:34.601Z,94730
2023-01-20T00:06:44.319Z,94729
2023-01-20T00:07:54.036Z,94729
2023-01-20T00:09:02.753Z,94732
2023-01-20T00:10:10.434Z,94730
2023-01-20T00:11:18.124Z,94724
2023-01-20T00:12:27.873Z,94719
2023-01-20T00:13:36.588Z,94727
2023-01-20T00:14:45.259Z,94726
2023-01-20T00:15:55.020Z,94724
2023-01-20T00:17:03.700Z,94733
2023-01-20T00:18:12.405Z,94729
2023-01-20T00:19:22.112Z,94730
2023-01-20T00:20:30.803Z,94732
2023-01-20T00:21:39.485Z,94726
2023-01-20T00:22:49.206Z,94731
2023-01-20T00:23:57.891Z,94735
2023-01-20T00:25:07.580Z,94736
2023-01-20T00:26:17.328Z,94742
2023-01-20T00:27:27.013Z,94738
2023-01-20T00:28:35.749Z,94744
2023-01-20T00:29:45.486Z,94741
2023-01-20T00:30:55.274Z,94741
2023-01-20T00:32:03.841Z,94745
2023-01-20T00:33:12.531Z,94743
2023-01-20T00:34:22.222Z,94742
2023-01-20T00:35:30.931Z,94747
2023-01-20T00:36:40.642Z,94741
2023-01-20T00:37:49.326Z,94744
2023-01-20T00:38:59.014Z,94745
2023-01-20T00:40:07.687Z,94749
2023-01-20T00:41:16.453Z,94744
2023-01-20T00:42:26.110Z,94742
2023-01-20T00:43:33.794Z,94744
2023-01-20T00:44:42.502Z,94741
2023-01-20T00:45:52.156Z,94740
2023-01-20T00:47:00.879Z,94743
2023-01-20T00:48:09.572Z,94743
2023-01-20T00:49:18.276Z,94743
2023-01-20T00:50:27.016Z,94746
2023-01-20T00:51:36.738Z,94747
2023-01-20T00:52:44.560Z,94749
2023-01-20T00:53:53.242Z,94753
2023-01-20T00:55:02.978Z,94750
2023-01-20T00:56:10.632Z,94749
2023-01-20T00:57:19.309Z,94752
2023-01-20T00:58:29.003Z,94755
2023-01-20T00:59:38.707Z,94749
2023-01-20T01:00:47.491Z,94752
2023-01-20T01:01:58.147Z,94754
2023-01-20T01:03:07.784Z,94755
2023-01-20T01:04:17.520Z,94757
2023-01-20T01:05:25.224Z,94753
2023-01-20T01:06:33.944Z,94759
2023-01-20T01:07:42.658Z,94759
2023-01-20T01:08:51.365Z,94759
2023-01-20T01:10:01.114Z,94755
2023-01-20T01:11:09.883Z,94757
2023-01-20T01:12:18.537Z,94758
2023-01-20T01:13:28.276Z,94757
2023-01-20T01:14:36.971Z,94759
2023-01-20T01:15:46.720Z,94758
2023-01-20T01:16:57.404Z,94763
2023-01-20T01:18:04.282Z,94760
2023-01-20T01:19:13.990Z,94760
2023-01-20T01:20:22.706Z,94768
2023-01-20T01:21:30.458Z,94765
2023-01-20T01:22:40.227Z,94761
2023-01-20T01:23:47.970Z,94769
2023-01-20T01:24:56.659Z,94764
2023-01-20T01:26:05.362Z,94767
2023-01-20T01:27:15.083Z,94771
2023-01-20T01:28:24.804Z,94767
2023-01-20T01:29:33.518Z,94766
2023-01-20T01:30:43.256Z,94769
2023-01-20T01:31:52.925Z,94771
2023-01-20T01:33:01.661Z,94770
2023-01-20T01:34:11.359Z,94771
2023-01-20T01:35:20.064Z,94772
2023-01-20T01:36:29.810Z,94770
2023-01-20T01:37:39.570Z,94773
2023-01-20T01:38:57.127Z,94773
2023-01-20T01:39:55.940Z,94770
2023-01-20T01:41:05.652Z,94780
2023-01-20T01:42:13.351Z,94777
2023-01-20T01:43:22.079Z,94778
2023-01-20T01:44:30.876Z,94775
2023-01-20T01:45:39.640Z,94774
2023-01-20T01:46:49.330Z,94773
2023-01-20T01:47:58.019Z,94772
2023-01-20T01:49:06.780Z,94774
2023-01-20T01:50:16.507Z,94772
2023-01-20T01:51:25.200Z,94774
2023-01-20T01:52:33.945Z,94773
2023-01-20T01:53:42.641Z,94772
2023-01-20T01:54:52.379Z,94771
2023-01-20T01:56:01.089Z,94773
2023-01-20T01:57:08.804Z,94776
2023-01-20T01:58:17.504Z,94775
2023-01-20T01:59:27.233Z,94773
2023-01-20T02:00:35.982Z,94778
2023-01-20T02:01:45.820Z,94776
2023-01-20T02:02:54.381Z,94777
2023-01-20T02:04:03.068Z,94775
2023-01-20T02:05:12.817Z,94772
2023-01-20T02:06:21.519Z,94778
2023-01-20T02:07:30.229Z,94777
2023-01-20T02:08:39.914Z,94774
2023-01-20T02:09:47.614Z,94776
2023-01-20T02:10:56.360Z,94777
2023-01-20T02:12:05.039Z,94777
2023-01-20T02:13:13.765Z,94775
2023-01-20T02:14:23.444Z,94779
2023-01-20T02:15:32.155Z,94778
2023-01-20T02:16:40.901Z,94778
2023-01-20T02:17:50.625Z,94775
2023-01-20T02:18:58.354Z,94776
2023-01-20T02:20:07.073Z,94774
2023-01-20T02:21:15.799Z,94778
2023-01-20T02:22:24.454Z,94778
2023-01-20T02:23:34.153Z,94780
2023-01-20T02:24:41.885Z,94774
2023-01-20T02:25:50.569Z,94783
2023-01-20T02:27:00.292Z,94780
2023-01-20T02:28:07.991Z,94782
2023-01-20T02:29:16.691Z,94788
2023-01-20T02:30:25.431Z,94782
2023-01-20T02:31:34.154Z,94786
2023-01-20T02:32:43.801Z,94788
2023-01-20T02:33:49.498Z,94786
2023-01-20T02:34:59.224Z,94789
2023-01-20T02:36:07.963Z,94788
2023-01-20T02:37:16.749Z,94791
2023-01-20T02:38:26.373Z,94793
2023-01-20T02:39:35.090Z,94794
2023-01-20T02:40:43.861Z,94794
2023-01-20T02:41:52.578Z,94796
2023-01-20T02:43:01.259Z,94793
2023-01-20T02:44:10.942Z,94794
2023-01-20T02:45:18.633Z,94796
2023-01-20T02:46:27.348Z,94796
2023-01-20T02:47:36.092Z,94798
2023-01-20T02:48:43.779Z,94795
2023-01-20T02:49:52.494Z,94795
2023-01-20T02:51:01.205Z,94800
2023-01-20T02:52:09.889Z,94801
2023-01-20T02:53:19.659Z,94797
2023-01-20T02:54:28.340Z,94798
2023-01-20T02:55:37.063Z,94799
2023-01-20T02:56:46.773Z,94802
2023-01-20T02:57:54.452Z,94801
2023-01-20T02:59:03.235Z,94804
2023-01-20T03:00:11.944Z,94802
2023-01-20T03:01:20.839Z,94805
2023-01-20T03:02:30.352Z,94809
2023-01-20T03:03:40.063Z,94809
2023-01-20T03:04:47.770Z,94808
2023-01-20T03:05:57.549Z,94807
2023-01-20T03:07:05.171Z,94811
2023-01-20T03:08:13.866Z,94806
2023-01-20T03:09:23.602Z,94809
2023-01-20T03:10:33.314Z,94809
2023-01-20T03:11:43.001Z,94808
2023-01-20T03:12:50.704Z,94808
2023-01-20T03:13:59.424Z,94807
2023-01-20T03:15:09.141Z,94812
2023-01-20T03:16:17.869Z,94811
2023-01-20T03:17:26.572Z,94810
2023-01-20T03:18:36.335Z,94813
2023-01-20T03:19:45.016Z,94809
2023-01-20T03:20:54.802Z,94816
2023-01-20T03:22:02.462Z,94813
2023-01-20T03:23:11.179Z,94808
2023-01-20T03:24:20.886Z,94814
2023-01-20T03:25:29.607Z,94817
2023-01-20T03:26:39.288Z,94819
2023-01-20T03:27:48.992Z,94817
2023-01-20T03:28:58.690Z,94819
2023-01-20T03:30:08.423Z,94819
2023-01-20T03:31:16.231Z,94824
2023-01-20T03:32:24.794Z,94820
2023-01-20T03:33:34.514Z,94826
2023-01-20T03:34:43.209Z,94824
2023-01-20T03:35:51.893Z,94826
2023-01-20T03:36:59.572Z,94825
2023-01-20T03:38:08.287Z,94826
2023-01-20T03:39:18.018Z,94827
2023-01-20T03:40:26.664Z,94828
2023-01-20T03:41:35.371Z,94825
2023-01-20T03:42:45.070Z,94828
2023-01-20T03:43:53.757Z,94828
2023-01-20T03:45:03.455Z,94831
2023-01-20T03:46:12.169Z,94831
2023-01-20T03:47:21.821Z,94833
2023-01-20T03:48:31.512Z,94836
2023-01-20T03:49:41.178Z,94838
2023-01-20T03:50:49.874Z,94835
2023-01-20T03:51:59.567Z,94841
2023-01-20T03:53:07.251Z,94844
2023-01-20T03:54:15.936Z,94843
2023-01-20T03:55:24.634Z,94841
2023-01-20T03:56:33.325Z,94848
2023-01-20T03:57:43.032Z,94856
2023-01-20T03:58:51.682Z,94855
2023-01-20T04:00:00.379Z,94854
2023-01-20T04:01:15.601Z,94855
2023-01-20T04:02:21.005Z,94859
2023-01-20T04:03:29.657Z,94856
2023-01-20T04:04:38.172Z,94856
2023-01-20T04:05:46.847Z,94855
2023-01-20T04:06:56.554Z,94858
2023-01-20T04:08:06.503Z,94861
2023-01-20T04:09:15.257Z,94858
2023-01-20T04:10:25.115Z,94861
2023-01-20T04:11:34.961Z,94863
2023-01-20T04:12:43.638Z,94858
2023-01-20T04:13:53.351Z,94859
2023-01-20T04:15:02.007Z,94860
2023-01-20T04:16:11.867Z,94859
2023-01-20T04:17:20.453Z,94859
2023-01-20T04:18:30.158Z,94858
2023-01-20T04:19:39.874Z,94861
2023-01-20T04:20:47.608Z,94862
2023-01-20T04:21:57.327Z,94863
2023-01-20T04:23:06.229Z,94865
2023-01-20T04:24:14.938Z,94870
2023-01-20T04:25:24.738Z,94869
2023-01-20T04:26:32.418Z,94868
2023-01-20T04:27:41.095Z,94876
2023-01-20T04:28:50.812Z,94872
2023-01-20T04:29:58.550Z,94876
2023-01-20T04:31:15.443Z,94871
2023-01-20T04:32:18.907Z,94873
2023-01-20T04:33:27.606Z,94876
2023-01-20T04:34:37.295Z,94876
2023-01-20T04:35:45.973Z,94876
2023-01-20T04:36:55.697Z,94882
2023-01-20T04:38:03.361Z,94879
2023-01-20T04:39:13.045Z,94886
2023-01-20T04:40:22.740Z,94880
2023-01-20T04:41:31.433Z,94884
2023-01-20T04:42:39.180Z,94887
2023-01-20T04:43:47.872Z,94885
2023-01-20T04:44:56.574Z,94889
2023-01-20T04:46:06.323Z,94886
2023-01-20T04:47:14.975Z,94890
2023-01-20T04:48:23.694Z,94892
2023-01-20T04:49:33.388Z,94893
2023-01-20T04:50:41.131Z,94893
2023-01-20T04:51:50.852Z,94898
2023-01-20T04:53:00.835Z,94897
2023-01-20T04:54:08.215Z,94900
2023-01-20T04:55:17.986Z,94905
2023-01-20T04:56:26.628Z,94907
2023-01-20T04:57:36.303Z,94907
2023-01-20T04:58:46.006Z,94905
2023-01-20T04:59:55.745Z,94907
2023-01-20T05:01:04.483Z,94906
2023-01-20T05:02:20.340Z,94898
2023-01-20T05:03:28.911Z,94904
2023-01-20T05:04:37.586Z,94910
2023-01-20T05:05:47.314Z,94910
2023-01-20T05:06:56.004Z,94905
2023-01-20T05:08:04.699Z,94917
2023-01-20T05:09:13.383Z,94919
2023-01-20T05:10:23.077Z,94922
2023-01-20T05:11:32.950Z,94923
2023-01-20T05:12:41.661Z,94919
2023-01-20T05:13:51.483Z,94925
2023-01-20T05:15:01.188Z,94925
2023-01-20T05:16:10.996Z,94924
2023-01-20T05:17:19.756Z,94923
2023-01-20T05:18:28.496Z,94931
2023-01-20T05:19:38.150Z,94931
2023-01-20T05:20:47.851Z,94935
2023-01-20T05:21:55.583Z,94935
2023-01-20T05:23:05.234Z,94931
2023-01-20T05:24:14.955Z,94936
2023-01-20T05:25:23.671Z,94934
2023-01-20T05:26:32.445Z,94937
2023-01-20T05:27:42.203Z,94936
2023-01-20T05:28:51.126Z,94934
2023-01-20T05:30:01.076Z,94941
2023-01-20T05:31:10.920Z,94941
2023-01-20T05:32:20.540Z,94941
2023-01-20T05:33:29.226Z,94942
2023-01-20T05:34:37.955Z,94941
2023-01-20T05:35:47.575Z,94948
2023-01-20T05:36:57.257Z,94947
2023-01-20T05:38:05.913Z,94944
2023-01-20T05:39:15.694Z,94941
2023-01-20T05:40:24.455Z,94945
2023-01-20T05:41:34.151Z,94945
2023-01-20T05:42:43.827Z,94950
2023-01-20T05:43:52.506Z,94950
2023-01-20T05:45:01.225Z,94950
2023-01-20T05:46:11.032Z,94948
2023-01-20T05:47:20.728Z,94951
2023-01-20T05:48:30.440Z,94949
2023-01-20T05:49:39.147Z,94958
2023-01-20T05:50:48.860Z,94954
2023-01-20T05:51:58.606Z,94954
2023-01-20T05:53:06.295Z,94958
2023-01-20T05:54:15.001Z,94953
2023-01-20T05:55:24.718Z,94958
2023-01-20T05:56:34.484Z,94957
2023-01-20T05:57:44.262Z,94956
2023-01-20T05:58:53.985Z,94958
2023-01-20T06:00:02.681Z,94960
2023-01-20T06:01:12.418Z,94966
2023-01-20T06:02:21.148Z,94965
2023-01-20T06:03:29.784Z,94963
2023-01-20T06:04:37.474Z,94968
2023-01-20T06:05:47.315Z,94969
2023-01-20T06:06:57.129Z,94969
2023-01-20T06:08:05.814Z,94970
2023-01-20T06:09:14.519Z,94971
2023-01-20T06:10:24.307Z,94974
2023-01-20T06:11:33.945Z,94973
2023-01-20T06:12:42.645Z,94972
2023-01-20T06:13:51.414Z,94976
2023-01-20T06:15:01.298Z,94975
2023-01-20T06:16:11.011Z,94977
2023-01-20T06:17:19.672Z,94977
2023-01-20T06:18:28.333Z,94977
2023-01-20T06:19:38.019Z,94975
2023-01-20T06:20:46.721Z,94977
2023-01-20T06:21:56.504Z,94979
2023-01-20T06:23:06.211Z,94982
2023-01-20T06:24:15.897Z,94983
2023-01-20T06:25:24.579Z,94980
2023-01-20T06:26:33.264Z,94981
2023-01-20T06:27:42.950Z,94983
2023-01-20T06:28:52.620Z,94984
2023-01-20T06:30:02.287Z,94987
2023-01-20T06:31:12.104Z,94984
2023-01-20T06:32:20.770Z,94988
2023-01-20T06:33:29.433Z,94989
2023-01-20T06:34:38.103Z,94987
2023-01-20T06:35:47.753Z,94991
2023-01-20T06:36:56.427Z,94992
2023-01-20T06:38:03.112Z,94994
2023-01-20T06:39:12.828Z,94991
2023-01-20T06:40:22.486Z,94996
2023-01-20T06:41:30.134Z,94997
2023-01-20T06:42:38.810Z,95000
2023-01-20T06:43:47.577Z,95007
2023-01-20T06:44:56.226Z,95005
2023-01-20T06:46:05.896Z,95005
2023-01-20T06:47:13.546Z,95005
2023-01-20T06:48:21.240Z,95008
2023-01-20T06:49:30.967Z,95006
2023-01-20T06:50:39.642Z,95007
2023-01-20T06:51:48.357Z,95019
2023-01-20T06:52:57.066Z,95013
2023-01-20T06:54:06.728Z,95009
2023-01-20T06:55:16.844Z,95015
2023-01-20T06:56:25.102Z,95020
2023-01-20T06:57:34.837Z,95021
2023-01-20T06:58:44.516Z,95024
2023-01-20T06:59:52.168Z,95028
2023-01-20T07:01:01.093Z,95031
2023-01-20T07:02:09.796Z,95029
2023-01-20T07:03:18.344Z,95033
2023-01-20T07:04:28.093Z,95036
2023-01-20T07:05:35.765Z,95037
2023-01-20T07:06:44.467Z,95034
2023-01-20T07:07:54.183Z,95041
2023-01-20T07:09:02.860Z,95041
2023-01-20T07:10:11.529Z,95043
2023-01-20T07:11:20.276Z,95048
2023-01-20T07:12:29.945Z,95044
2023-01-20T07:13:39.643Z,95046
2023-01-20T07:14:49.314Z,95050
2023-01-20T07:15:57.991Z,95052
2023-01-20T07:17:07.684Z,95054
2023-01-20T07:18:16.395Z,95053
2023-01-20T07:19:26.253Z,95055
2023-01-20T07:20:35.924Z,95058
2023-01-20T07:21:44.601Z,95062
2023-01-20T07:22:54.278Z,95062
2023-01-20T07:24:04.042Z,95066
2023-01-20T07:25:14.164Z,95065
2023-01-20T07:26:23.452Z,95071
2023-01-20T07:27:32.199Z,95070
2023-01-20T07:28:40.853Z,95068
2023-01-20T07:29:50.553Z,95072
2023-01-20T07:31:00.341Z,95070
2023-01-20T07:32:09.924Z,95074
2023-01-20T07:33:18.621Z,95075
2023-01-20T07:34:27.290Z,95080
2023-01-20T07:35:36.979Z,95080
2023-01-20T07:36:46.660Z,95085
2023-01-20T07:37:55.328Z,95085
2023-01-20T07:39:03.997Z,95090
2023-01-20T07:40:13.659Z,95092
2023-01-20T07:41:23.610Z,95091
2023-01-20T07:42:31.123Z,95094
2023-01-20T07:43:40.773Z,95096
2023-01-20T07:44:50.454Z,95100
2023-01-20T07:45:59.206Z,95102
2023-01-20T07:47:07.869Z,95100
2023-01-20T07:48:16.580Z,95103
2023-01-20T07:49:26.351Z,95106
2023-01-20T07:50:35.049Z,95105
2023-01-20T07:51:44.761Z,95108
2023-01-20T07:52:53.471Z,95110
2023-01-20T07:54:02.198Z,95113
2023-01-20T07:55:11.984Z,95108
2023-01-20T07:56:20.618Z,95108
2023-01-20T07:57:29.346Z,95109
2023-01-20T07:58:38.150Z,95116
2023-01-20T07:59:47.830Z,95113
2023-01-20T08:00:57.533Z,95112
2023-01-20T08:02:06.181Z,95113
2023-01-20T08:03:14.836Z,95116
2023-01-20T08:04:24.621Z,95118
2023-01-20T08:05:32.233Z,95116
2023-01-20T08:06:40.901Z,95114
2023-01-20T08:07:49.678Z,95120
2023-01-20T08:08:58.898Z,95121
2023-01-20T08:10:08.040Z,95117
2023-01-20T08:11:16.749Z,95118
2023-01-20T08:12:25.640Z,95119
2023-01-20T08:13:36.295Z,95122
2023-01-20T08:14:45.013Z,95130
2023-01-20T08:15:53.741Z,95127
2023-01-20T08:17:03.428Z,95126
2023-01-20T08:18:13.198Z,95128
2023-01-20T08:19:22.945Z,95126
2023-01-20T08:20:31.620Z,95133
2023-01-20T08:21:40.364Z,95131
2023-01-20T08:22:50.067Z,95135
2023-01-20T08:23:57.749Z,95134
2023-01-20T08:25:06.426Z,95134
2023-01-20T08:26:15.090Z,95138
2023-01-20T08:27:24.876Z,95142
2023-01-20T08:28:36.118Z,95138
2023-01-20T08:29:45.820Z,95139
2023-01-20T08:30:55.680Z,95137
2023-01-20T08:32:04.217Z,95142
2023-01-20T08:33:12.979Z,95141
2023-01-20T08:34:22.723Z,95148
2023-01-20T08:35:30.426Z,95140
2023-01-20T08:36:40.170Z,95144
2023-01-20T08:37:48.889Z,95143
2023-01-20T08:38:57.626Z,95147
2023-01-20T08:40:07.333Z,95147
2023-01-20T08:41:17.036Z,95147
2023-01-20T08:42:26.698Z,95145
2023-01-20T08:43:36.374Z,95143
2023-01-20T08:44:45.059Z,95147
2023-01-20T08:45:53.768Z,95152
2023-01-20T08:47:02.404Z,95152
2023-01-20T08:48:12.039Z,95152
2023-01-20T08:49:21.709Z,95160
2023-01-20T08:50:30.443Z,95164
2023-01-20T08:51:39.174Z,95166
2023-01-20T08:52:48.771Z,95161
2023-01-20T08:53:58.463Z,95167
2023-01-20T08:55:08.118Z,95168
2023-01-20T08:56:17.836Z,95170
2023-01-20T08:57:27.509Z,95174
2023-01-20T08:58:37.157Z,95178
2023-01-20T08:59:44.817Z,95171
2023-01-20T09:00:53.496Z,95174
2023-01-20T09:02:03.176Z,95179
2023-01-20T09:03:10.854Z,95180
2023-01-20T09:04:19.501Z,95178
2023-01-20T09:05:29.162Z,95182
2023-01-20T09:06:37.812Z,95184
2023-01-20T09:07:47.488Z,95187
2023-01-20T09:08:55.179Z,95187
2023-01-20T09:10:04.845Z,95185
2023-01-20T09:11:14.537Z,95188
2023-01-20T09:12:23.181Z,95189
2023-01-20T09:13:31.845Z,95196
2023-01-20T09:14:40.518Z,95194
2023-01-20T09:15:50.220Z,95197
2023-01-20T09:16:59.816Z,95195
2023-01-20T09:18:08.495Z,95194
2023-01-20T09:19:18.236Z,95201
2023-01-20T09:20:27.842Z,95205
2023-01-20T09:21:35.496Z,95203
2023-01-20T09:22:45.159Z,95206
2023-01-20T09:23:53.817Z,95206
2023-01-20T09:25:03.493Z,95208
2023-01-20T09:26:14.437Z,95208
2023-01-20T09:27:23.784Z,95213
2023-01-20T09:28:33.443Z,95210
2023-01-20T09:29:43.113Z,95209
2023-01-20T09:30:51.841Z,95210
2023-01-20T09:32:00.502Z,95209
2023-01-20T09:33:10.104Z,95208
2023-01-20T09:34:18.835Z,95213
2023-01-20T09:35:28.587Z,95212
2023-01-20T09:36:37.195Z,95212
2023-01-20T09:37:47.889Z,95212
2023-01-20T09:38:59.546Z,95215
2023-01-20T09:40:08.208Z,95215
2023-01-20T09:41:16.856Z,95219
2023-01-20T09:42:25.538Z,95220
2023-01-20T09:43:34.266Z,95218
2023-01-20T09:44:44.123Z,95215
2023-01-20T09:45:52.843Z,95221
2023-01-20T09:47:02.659Z,95216
2023-01-20T09:48:14.409Z,95219
2023-01-20T09:49:25.317Z,95221
2023-01-20T09:50:37.184Z,95222
2023-01-20T09:51:48.742Z,95222
2023-01-20T09:53:00.036Z,95225
2023-01-20T09:54:11.601Z,95224
2023-01-20T09:55:22.914Z,95226
2023-01-20T09:56:33.860Z,95222
2023-01-20T09:57:46.662Z,95228
2023-01-20T09:58:57.660Z,95231
2023-01-20T10:00:08.584Z,95229
2023-01-20T10:01:18.505Z,95228
2023-01-20T10:02:27.084Z,95229
2023-01-20T10:03:36.734Z,95231
2023-01-20T10:04:45.386Z,95228
2023-01-20T10:05:55.084Z,95235
2023-01-20T10:07:04.720Z,95236
2023-01-20T10:08:12.376Z,95237
2023-01-20T10:09:21.095Z,95240
2023-01-20T10:10:29.781Z,95245
2023-01-20T10:11:39.553Z,95239
2023-01-20T10:12:49.181Z,95242
2023-01-20T10:13:57.850Z,95242
2023-01-20T10:15:06.513Z,95247
2023-01-20T10:16:16.234Z,95245
2023-01-20T10:17:24.835Z,95242
2023-01-20T10:18:33.506Z,95238
2023-01-20T10:19:42.152Z,95239
2023-01-20T10:20:49.787Z,95235
2023-01-20T10:21:59.616Z,95240
2023-01-20T10:23:08.153Z,95243
2023-01-20T10:24:16.797Z,95242
2023-01-20T10:25:26.464Z,95240
2023-01-20T10:26:36.128Z,95238
2023-01-20T10:27:45.801Z,95243
2023-01-20T10:28:54.470Z,95244
2023-01-20T10:30:03.122Z,95245
2023-01-20T10:31:13.706Z,95240
2023-01-20T10:32:24.413Z,95242
2023-01-20T10:33:34.074Z,95244
2023-01-20T10:34:41.774Z,95240
2023-01-20T10:35:51.441Z,95237
2023-01-20T10:37:01.106Z,95238
2023-01-20T10:38:10.865Z,95239
2023-01-20T10:39:20.495Z,95238
2023-01-20T10:40:29.209Z,95238
2023-01-20T10:41:38.822Z,95238
2023-01-20T10:42:47.491Z,95237
2023-01-20T10:43:56.192Z,95243
2023-01-20T10:45:05.862Z,95241
2023-01-20T10:46:15.683Z,95244
2023-01-20T10:47:24.331Z,95242
2023-01-20T10:48:33.060Z,95245
2023-01-20T10:49:42.782Z,95248
2023-01-20T10:50:51.427Z,95245
2023-01-20T10:52:01.293Z,95239
2023-01-20T10:53:10.838Z,95243
2023-01-20T10:54:19.636Z,95241
2023-01-20T10:55:29.370Z,95242
2023-01-20T10:56:39.029Z,95240
2023-01-20T10:57:47.726Z,95240
2023-01-20T10:58:57.379Z,95241
2023-01-20T11:00:07.071Z,95240
2023-01-20T11:01:16.821Z,95239
2023-01-20T11:02:25.466Z,95239
2023-01-20T11:03:34.893Z,95241
2023-01-20T11:04:47.300Z,95239
2023-01-20T11:05:59.280Z,95241
2023-01-20T11:07:09.612Z,95246
2023-01-20T11:08:20.341Z,95243
2023-01-20T11:09:30.852Z,95236
2023-01-20T11:10:42.155Z,95242
2023-01-20T11:11:56.719Z,95240
2023-01-20T11:13:16.956Z,95244
2023-01-20T11:14:28.568Z,95246
2023-01-20T11:15:40.851Z,95244
2023-01-20T11:16:51.541Z,95246
2023-01-20T11:18:01.496Z,95243
2023-01-20T11:19:11.992Z,95242
2023-01-20T11:20:23.325Z,95242
2023-01-20T11:21:33.786Z,95245
2023-01-20T11:22:42.440Z,95242
2023-01-20T11:23:52.133Z,95248
2023-01-20T11:25:01.835Z,95244
2023-01-20T11:26:11.563Z,95243
2023-01-20T11:27:20.255Z,95238
2023-01-20T11:28:30.168Z,95246
2023-01-20T11:29:39.857Z,95243
2023-01-20T11:30:48.513Z,95248
2023-01-20T11:31:59.056Z,95249
2023-01-20T11:33:10.332Z,95247
2023-01-20T11:34:20.911Z,95249
2023-01-20T11:35:31.806Z,95244
2023-01-20T11:36:44.711Z,95249
2023-01-20T11:37:54.438Z,95243
2023-01-20T11:39:05.485Z,95247
2023-01-20T11:40:16.592Z,95246
2023-01-20T11:41:26.541Z,95247
2023-01-20T11:42:37.265Z,95245
2023-01-20T11:43:48.567Z,95246
2023-01-20T11:45:08.637Z,95247
2023-01-20T11:46:10.199Z,95247
2023-01-20T11:47:21.127Z,95245
2023-01-20T11:48:31.419Z,95243
2023-01-20T11:49:41.776Z,95243
2023-01-20T11:50:53.235Z,95242
2023-01-20T11:52:03.191Z,95245
2023-01-20T11:53:12.402Z,95242
2023-01-20T11:54:22.876Z,95245
2023-01-20T11:55:35.342Z,95242
2023-01-20T11:56:45.562Z,95237
2023-01-20T11:57:57.714Z,95237
2023-01-20T11:59:09.326Z,95242
2023-01-20T12:00:20.289Z,95241
2023-01-20T12:01:31.969Z,95247
2023-01-20T12:02:43.255Z,95241
2023-01-20T12:03:54.655Z,95243
2023-01-20T12:05:05.950Z,95246
2023-01-20T12:06:16.914Z,95238
2023-01-20T12:07:28.640Z,95238
2023-01-20T12:08:39.809Z,95251
2023-01-20T12:09:50.878Z,95245
2023-01-20T12:11:03.288Z,95241
2023-01-20T12:12:13.107Z,95240
2023-01-20T12:13:22.779Z,95245
2023-01-20T12:14:31.467Z,95241
2023-01-20T12:15:40.143Z,95240
2023-01-20T12:16:49.817Z,95243
2023-01-20T12:17:58.461Z,95245
2023-01-20T12:19:07.152Z,95248
2023-01-20T12:20:17.376Z,95248
2023-01-20T12:21:25.649Z,95251
2023-01-20T12:22:35.331Z,95253
2023-01-20T12:23:45.255Z,95247
2023-01-20T12:24:54.961Z,95244
2023-01-20T12:26:04.646Z,95251
2023-01-20T12:27:13.439Z,95247
2023-01-20T12:28:23.105Z,95246
2023-01-20T12:29:31.791Z,95247
2023-01-20T12:30:42.714Z,95249
2023-01-20T12:31:55.601Z,95252
2023-01-20T12:33:07.440Z,95253
2023-01-20T12:34:18.723Z,95254
2023-01-20T12:35:28.676Z,95259
2023-01-20T12:36:37.610Z,95255
2023-01-20T12:37:49.728Z,95250
2023-01-20T12:38:59.454Z,95256
2023-01-20T12:40:08.466Z,95253
2023-01-20T12:41:18.135Z,95251
2023-01-20T12:42:28.831Z,95253
2023-01-20T12:43:38.459Z,95258
2023-01-20T12:44:48.137Z,95255
2023-01-20T12:45:57.907Z,95257
2023-01-20T12:47:07.488Z,95261
2023-01-20T12:48:15.164Z,95260
2023-01-20T12:49:24.832Z,95270
2023-01-20T12:50:34.507Z,95255
2023-01-20T12:51:42.171Z,95259
2023-01-20T12:52:50.848Z,95256
2023-01-20T12:54:00.538Z,95266
2023-01-20T12:55:09.190Z,95260
2023-01-20T12:56:18.868Z,95261
2023-01-20T12:57:27.538Z,95263
2023-01-20T12:58:37.282Z,95258
2023-01-20T12:59:46.900Z,95255
2023-01-20T13:00:54.574Z,95264
2023-01-20T13:02:04.227Z,95262
2023-01-20T13:03:12.916Z,95267
2023-01-20T13:04:22.602Z,95266
2023-01-20T13:05:32.299Z,95264
2023-01-20T13:06:40.962Z,95263
2023-01-20T13:07:50.624Z,95264
2023-01-20T13:09:00.339Z,95266
2023-01-20T13:10:10.010Z,95265
2023-01-20T13:11:19.768Z,95269
2023-01-20T13:12:28.425Z,95268
2023-01-20T13:13:48.165Z,95268
2023-01-20T13:14:48.740Z,95268
2023-01-20T13:15:57.372Z,95266
2023-01-20T13:17:07.195Z,95265
2023-01-20T13:18:16.793Z,95271
2023-01-20T13:19:25.472Z,95267
2023-01-20T13:20:34.137Z,95267
2023-01-20T13:21:43.799Z,95272
2023-01-20T13:22:54.460Z,95273
2023-01-20T13:24:04.134Z,95275
2023-01-20T13:25:12.989Z,95272
2023-01-20T13:26:21.453Z,95275
2023-01-20T13:27:31.128Z,95273
2023-01-20T13:28:38.843Z,95275
2023-01-20T13:29:47.497Z,95277
2023-01-20T13:30:57.294Z,95276
2023-01-20T13:32:06.880Z,95282
2023-01-20T13:33:15.549Z,95283
2023-01-20T13:34:23.252Z,95286
2023-01-20T13:35:31.913Z,95278
2023-01-20T13:36:41.586Z,95283
2023-01-20T13:37:51.249Z,95282
2023-01-20T13:39:00.903Z,95286
2023-01-20T13:40:10.627Z,95284
2023-01-20T13:41:20.284Z,95280
2023-01-20T13:42:29.974Z,95292
2023-01-20T13:43:39.636Z,95288
2023-01-20T13:44:48.294Z,95291
2023-01-20T13:45:58.085Z,95291
2023-01-20T13:47:07.428Z,95296
2023-01-20T13:48:15.015Z,95295
2023-01-20T13:49:24.696Z,95296
2023-01-20T13:50:33.374Z,95301
2023-01-20T13:51:43.088Z,95303
2023-01-20T13:52:50.805Z,95302
2023-01-20T13:53:59.407Z,95300
2023-01-20T13:55:09.093Z,95305
2023-01-20T13:56:17.799Z,95307
2023-01-20T13:57:27.514Z,95310
2023-01-20T13:58:37.219Z,95317
2023-01-20T13:59:45.862Z,95314
2023-01-20T14:00:55.555Z,95313
2023-01-20T14:02:03.187Z,95314
2023-01-20T14:03:12.896Z,95312
2023-01-20T14:04:22.540Z,95310
2023-01-20T14:05:31.251Z,95311
2023-01-20T14:06:39.908Z,95314
2023-01-20T14:07:49.561Z,95315
2023-01-20T14:08:59.419Z,95315
2023-01-20T14:10:10.082Z,95319
2023-01-20T14:11:19.807Z,95315
2023-01-20T14:12:29.433Z,95314
2023-01-20T14:13:39.089Z,95317
2023-01-20T14:14:47.837Z,95316
2023-01-20T14:15:56.619Z,95314
2023-01-20T14:17:05.217Z,95315
2023-01-20T14:18:14.871Z,95313
2023-01-20T14:19:23.579Z,95317
2023-01-20T14:20:32.190Z,95325
2023-01-20T14:21:41.836Z,95323
2023-01-20T14:22:51.500Z,95320
2023-01-20T14:24:01.145Z,95323
2023-01-20T14:25:10.814Z,95325
2023-01-20T14:26:20.485Z,95327
2023-01-20T14:27:29.143Z,95328
2023-01-20T14:28:37.826Z,95333
2023-01-20T14:29:47.493Z,95330
2023-01-20T14:30:57.183Z,95338
2023-01-20T14:32:04.873Z,95331
2023-01-20T14:33:13.490Z,95336
2023-01-20T14:34:23.149Z,95337
2023-01-20T14:35:32.223Z,95339
2023-01-20T14:36:40.853Z,95336
2023-01-20T14:37:49.541Z,95337
2023-01-20T14:38:59.237Z,95335
2023-01-20T14:40:08.886Z,95342
2023-01-20T14:41:17.638Z,95340
2023-01-20T14:42:26.305Z,95339
2023-01-20T14:43:35.977Z,95346
2023-01-20T14:44:44.638Z,95342
2023-01-20T14:45:53.293Z,95348
2023-01-20T14:47:02.989Z,95347
2023-01-20T14:48:16.910Z,95350
2023-01-20T14:49:22.392Z,95353
2023-01-20T14:50:30.095Z,95349
2023-01-20T14:51:39.727Z,95353
2023-01-20T14:52:49.418Z,95348